sensor_id;sensor_type;location;lat;lon;timestamp;pressure;altitude;pressure_sealevel;temperature;humidity
38852;BME280;24605;50.092;9.182;2023-02-10T00:02:14;99707.25;;;-4.68;100.00
38852;BME280;24605;50.092;9.182;2023-02-10T00:04:40;99711.69;;;-4.78;100.00
38852;BME280;24605;50.092;9.182;2023-02-10T00:07:06;99718.75;;;-4.91;100.00
38852;BME280;24605;50.092;9.182;2023-02-10T00:09:33;99710.66;;;-5.16;100.00
38852;BME280;24605;50.092;9.182;2023-02-10T00:11:59;99727.13;;;-5.34;100.00
38852;BME280;24605;50.092;9.182;2023-02-10T00:14:28;99725.50;;;-5.38;100.00
38852;BME280;24605;50.092;9.182;2023-02-10T00:16:56;99712.75;;;-5.40;100.00
38852;BME280;24605;50.092;9.182;2023-02-10T00:19:24;99720.78;;;-5.10;100.00
38852;BME280;24605;50.092;9.182;2023-02-10T00:21:51;99726.81;;;-5.14;100.00
38852;BME280;24605;50.092;9.182;2023-02-10T00:24:18;99718.16;;;-5.05;100.00
38852;BME280;24605;50.092;9.182;2023-02-10T00:26:45;99711.34;;;-5.06;100.00
38852;BME280;24605;50.092;9.182;2023-02-10T00:29:12;99707.53;;;-4.83;100.00
38852;BME280;24605;50.092;9.182;2023-02-10T00:31:40;99690.59;;;-4.91;100.00
38852;BME280;24605;50.092;9.182;2023-02-10T00:34:08;99707.47;;;-4.80;100.00
38852;BME280;24605;50.092;9.182;2023-02-10T00:36:36;99734.66;;;-4.75;100.00
38852;BME280;24605;50.092;9.182;2023-02-10T00:39:02;99726.13;;;-4.75;100.00
38852;BME280;24605;50.092;9.182;2023-02-10T00:41:29;99727.94;;;-4.80;100.00
38852;BME280;24605;50.092;9.182;2023-02-10T00:43:55;99721.28;;;-4.91;100.00
38852;BME280;24605;50.092;9.182;2023-02-10T00:46:22;99734.59;;;-4.70;100.00
38852;BME280;24605;50.092;9.182;2023-02-10T00:48:50;99723.97;;;-4.97;100.00
38852;BME280;24605;50.092;9.182;2023-02-10T00:51:18;99740.44;;;-4.65;100.00
38852;BME280;24605;50.092;9.182;2023-02-10T00:53:45;99737.97;;;-4.69;100.00
38852;BME280;24605;50.092;9.182;2023-02-10T00:56:15;99735.41;;;-4.69;100.00
38852;BME280;24605;50.092;9.182;2023-02-10T00:58:41;99736.28;;;-4.70;100.00
38852;BME280;24605;50.092;9.182;2023-02-10T01:01:08;99743.28;;;-4.80;100.00
38852;BME280;24605;50.092;9.182;2023-02-10T01:03:34;99748.53;;;-4.86;100.00
38852;BME280;24605;50.092;9.182;2023-02-10T01:06:03;99731.66;;;-4.97;100.00
38852;BME280;24605;50.092;9.182;2023-02-10T01:08:30;99730.84;;;-5.00;100.00
38852;BME280;24605;50.092;9.182;2023-02-10T01:11:00;99736.44;;;-4.80;100.00
38852;BME280;24605;50.092;9.182;2023-02-10T01:13:28;99740.69;;;-4.79;100.00
38852;BME280;24605;50.092;9.182;2023-02-10T01:15:54;99740.03;;;-4.89;100.00
38852;BME280;24605;50.092;9.182;2023-02-10T01:18:21;99707.88;;;-5.04;100.00
38852;BME280;24605;50.092;9.182;2023-02-10T01:20:47;99739.88;;;-4.79;100.00
38852;BME280;24605;50.092;9.182;2023-02-10T01:23:15;99740.69;;;-4.79;100.00
38852;BME280;24605;50.092;9.182;2023-02-10T01:25:42;99736.41;;;-4.77;100.00
38852;BME280;24605;50.092;9.182;2023-02-10T01:28:09;99734.78;;;-4.81;100.00
38852;BME280;24605;50.092;9.182;2023-02-10T01:30:35;99748.06;;;-4.62;100.00
38852;BME280;24605;50.092;9.182;2023-02-10T01:33:02;99753.72;;;-4.44;100.00
38852;BME280;24605;50.092;9.182;2023-02-10T01:35:29;99752.94;;;-4.49;100.00
38852;BME280;24605;50.092;9.182;2023-02-10T01:37:56;99754.88;;;-4.61;100.00
38852;BME280;24605;50.092;9.182;2023-02-10T01:40:25;99755.97;;;-4.73;100.00
38852;BME280;24605;50.092;9.182;2023-02-10T01:42:52;99761.28;;;-4.85;100.00
38852;BME280;24605;50.092;9.182;2023-02-10T01:45:20;99762.28;;;-4.94;100.00
38852;BME280;24605;50.092;9.182;2023-02-10T01:47:50;99756.63;;;-5.11;100.00
38852;BME280;24605;50.092;9.182;2023-02-10T01:50:20;99762.38;;;-4.98;100.00
38852;BME280;24605;50.092;9.182;2023-02-10T01:52:48;99773.25;;;-4.85;100.00
38852;BME280;24605;50.092;9.182;2023-02-10T01:55:17;99770.00;;;-4.97;100.00
38852;BME280;24605;50.092;9.182;2023-02-10T01:57:46;99769.03;;;-4.90;100.00
38852;BME280;24605;50.092;9.182;2023-02-10T02:00:14;99773.34;;;-4.93;100.00
38852;BME280;24605;50.092;9.182;2023-02-10T02:02:41;99763.59;;;-5.23;100.00
38852;BME280;24605;50.092;9.182;2023-02-10T02:05:20;99774.47;;;-5.10;100.00
38852;BME280;24605;50.092;9.182;2023-02-10T02:07:47;99753.19;;;-5.12;100.00
38852;BME280;24605;50.092;9.182;2023-02-10T02:10:14;99751.31;;;-5.00;100.00
38852;BME280;24605;50.092;9.182;2023-02-10T02:12:47;99773.03;;;-4.75;100.00
38852;BME280;24605;50.092;9.182;2023-02-10T02:15:22;99771.47;;;-4.82;100.00
38852;BME280;24605;50.092;9.182;2023-02-10T02:17:54;99764.63;;;-4.81;100.00
38852;BME280;24605;50.092;9.182;2023-02-10T02:20:47;99774.66;;;-4.70;100.00
38852;BME280;24605;50.092;9.182;2023-02-10T02:23:28;99762.97;;;-4.84;100.00
38852;BME280;24605;50.092;9.182;2023-02-10T02:29:24;99777.75;;;-4.51;100.00
38852;BME280;24605;50.092;9.182;2023-02-10T02:31:59;99764.00;;;-4.47;100.00
38852;BME280;24605;50.092;9.182;2023-02-10T02:34:33;99781.91;;;-4.46;100.00
38852;BME280;24605;50.092;9.182;2023-02-10T02:37:07;99786.06;;;-4.40;100.00
38852;BME280;24605;50.092;9.182;2023-02-10T02:39:35;99786.22;;;-4.48;100.00
38852;BME280;24605;50.092;9.182;2023-02-10T02:42:14;99783.03;;;-4.61;100.00
38852;BME280;24605;50.092;9.182;2023-02-10T02:44:41;99788.84;;;-4.52;100.00
38852;BME280;24605;50.092;9.182;2023-02-10T02:47:13;99791.88;;;-4.30;100.00
38852;BME280;24605;50.092;9.182;2023-02-10T02:49:51;99794.94;;;-4.14;100.00
38852;BME280;24605;50.092;9.182;2023-02-10T02:52:27;99801.94;;;-4.22;100.00
38852;BME280;24605;50.092;9.182;2023-02-10T02:55:01;99792.22;;;-4.05;100.00
38852;BME280;24605;50.092;9.182;2023-02-10T02:57:36;99799.28;;;-3.74;100.00
38852;BME280;24605;50.092;9.182;2023-02-10T03:00:11;99787.09;;;-3.63;100.00
38852;BME280;24605;50.092;9.182;2023-02-10T03:02:40;99797.66;;;-3.39;100.00
38852;BME280;24605;50.092;9.182;2023-02-10T03:05:07;99791.56;;;-3.33;100.00
38852;BME280;24605;50.092;9.182;2023-02-10T03:07:35;99786.03;;;-3.16;100.00
38852;BME280;24605;50.092;9.182;2023-02-10T03:10:02;99784.88;;;-3.03;100.00
38852;BME280;24605;50.092;9.182;2023-02-10T03:12:29;99778.53;;;-2.89;100.00
38852;BME280;24605;50.092;9.182;2023-02-10T03:14:56;99780.28;;;-2.90;100.00
38852;BME280;24605;50.092;9.182;2023-02-10T03:17:22;99786.34;;;-2.94;100.00
38852;BME280;24605;50.092;9.182;2023-02-10T03:19:50;99790.28;;;-2.79;100.00
38852;BME280;24605;50.092;9.182;2023-02-10T03:22:17;99790.34;;;-2.82;100.00
38852;BME280;24605;50.092;9.182;2023-02-10T03:24:43;99782.72;;;-2.85;100.00
38852;BME280;24605;50.092;9.182;2023-02-10T03:27:10;99756.56;;;-3.00;100.00
38852;BME280;24605;50.092;9.182;2023-02-10T03:29:36;99784.03;;;-2.69;100.00
38852;BME280;24605;50.092;9.182;2023-02-10T03:32:03;99785.38;;;-2.55;100.00
38852;BME280;24605;50.092;9.182;2023-02-10T03:34:30;99770.88;;;-2.56;100.00
38852;BME280;24605;50.092;9.182;2023-02-10T03:36:58;99777.19;;;-2.37;100.00
38852;BME280;24605;50.092;9.182;2023-02-10T03:39:24;99785.75;;;-2.36;100.00
38852;BME280;24605;50.092;9.182;2023-02-10T03:41:51;99778.56;;;-2.23;100.00
38852;BME280;24605;50.092;9.182;2023-02-10T03:44:18;99775.59;;;-2.09;100.00
38852;BME280;24605;50.092;9.182;2023-02-10T03:46:45;99781.56;;;-2.09;100.00
38852;BME280;24605;50.092;9.182;2023-02-10T03:49:11;99783.34;;;-2.11;100.00
38852;BME280;24605;50.092;9.182;2023-02-10T03:51:38;99779.13;;;-2.13;100.00
38852;BME280;24605;50.092;9.182;2023-02-10T03:54:05;99793.22;;;-1.95;100.00
38852;BME280;24605;50.092;9.182;2023-02-10T03:56:32;99786.41;;;-1.98;100.00
38852;BME280;24605;50.092;9.182;2023-02-10T03:59:00;99772.78;;;-2.00;100.00
38852;BME280;24605;50.092;9.182;2023-02-10T04:01:26;99782.47;;;-1.80;100.00
38852;BME280;24605;50.092;9.182;2023-02-10T04:03:53;99784.84;;;-1.72;100.00
38852;BME280;24605;50.092;9.182;2023-02-10T04:06:19;99795.94;;;-1.71;100.00
38852;BME280;24605;50.092;9.182;2023-02-10T04:08:46;99801.16;;;-1.75;100.00
38852;BME280;24605;50.092;9.182;2023-02-10T04:11:14;99806.63;;;-1.85;100.00
38852;BME280;24605;50.092;9.182;2023-02-10T04:13:41;99815.41;;;-1.93;100.00
38852;BME280;24605;50.092;9.182;2023-02-10T04:16:09;99815.59;;;-1.99;100.00
38852;BME280;24605;50.092;9.182;2023-02-10T04:18:37;99815.47;;;-1.96;100.00
38852;BME280;24605;50.092;9.182;2023-02-10T04:21:05;99823.88;;;-1.89;100.00
38852;BME280;24605;50.092;9.182;2023-02-10T04:23:32;99808.63;;;-1.95;100.00
38852;BME280;24605;50.092;9.182;2023-02-10T04:25:59;99823.03;;;-1.90;100.00
38852;BME280;24605;50.092;9.182;2023-02-10T04:28:27;99812.41;;;-2.09;100.00
38852;BME280;24605;50.092;9.182;2023-02-10T04:30:54;99825.00;;;-1.99;100.00
38852;BME280;24605;50.092;9.182;2023-02-10T04:33:21;99823.03;;;-1.90;100.00
38852;BME280;24605;50.092;9.182;2023-02-10T04:35:50;99831.44;;;-1.84;100.00
38852;BME280;24605;50.092;9.182;2023-02-10T04:38:17;99827.66;;;-2.02;100.00
38852;BME280;24605;50.092;9.182;2023-02-10T04:40:44;99829.25;;;-1.67;100.00
38852;BME280;24605;50.092;9.182;2023-02-10T04:43:10;99829.41;;;-1.43;100.00
38852;BME280;24605;50.092;9.182;2023-02-10T04:45:39;99813.97;;;-2.03;100.00
38852;BME280;24605;50.092;9.182;2023-02-10T04:48:05;99832.53;;;-1.93;100.00
38852;BME280;24605;50.092;9.182;2023-02-10T04:50:32;99838.97;;;-2.10;100.00
38852;BME280;24605;50.092;9.182;2023-02-10T04:52:59;99840.53;;;-2.04;100.00
38852;BME280;24605;50.092;9.182;2023-02-10T04:55:25;99844.94;;;-2.08;100.00
38852;BME280;24605;50.092;9.182;2023-02-10T04:57:52;99846.78;;;-2.13;100.00
38852;BME280;24605;50.092;9.182;2023-02-10T05:00:19;99841.41;;;-2.03;100.00
38852;BME280;24605;50.092;9.182;2023-02-10T05:02:47;99848.22;;;-2.02;100.00
38852;BME280;24605;50.092;9.182;2023-02-10T05:05:13;99834.72;;;-2.11;100.00
38852;BME280;24605;50.092;9.182;2023-02-10T05:07:40;99843.06;;;-2.02;100.00
38852;BME280;24605;50.092;9.182;2023-02-10T05:10:06;99859.84;;;-1.89;100.00
38852;BME280;24605;50.092;9.182;2023-02-10T05:12:33;99859.28;;;-2.00;100.00
38852;BME280;24605;50.092;9.182;2023-02-10T05:14:59;99858.34;;;-1.98;100.00
38852;BME280;24605;50.092;9.182;2023-02-10T05:17:26;99853.72;;;-1.85;100.00
38852;BME280;24605;50.092;9.182;2023-02-10T05:19:53;99850.00;;;-1.75;100.00
38852;BME280;24605;50.092;9.182;2023-02-10T05:22:20;99845.88;;;-1.79;100.00
38852;BME280;24605;50.092;9.182;2023-02-10T05:24:47;99844.78;;;-1.71;100.00
38852;BME280;24605;50.092;9.182;2023-02-10T05:27:16;99842.09;;;-1.67;100.00
38852;BME280;24605;50.092;9.182;2023-02-10T05:29:43;99843.03;;;-1.69;100.00
38852;BME280;24605;50.092;9.182;2023-02-10T05:32:09;99853.25;;;-1.68;100.00
38852;BME280;24605;50.092;9.182;2023-02-10T05:34:36;99854.47;;;-1.80;100.00
38852;BME280;24605;50.092;9.182;2023-02-10T05:37:04;99857.84;;;-1.79;100.00
38852;BME280;24605;50.092;9.182;2023-02-10T05:39:30;99858.16;;;-1.90;100.00
38852;BME280;24605;50.092;9.182;2023-02-10T05:41:58;99869.31;;;-1.60;100.00
38852;BME280;24605;50.092;9.182;2023-02-10T05:44:27;99867.69;;;-1.62;100.00
38852;BME280;24605;50.092;9.182;2023-02-10T05:46:54;99872.00;;;-1.64;100.00
38852;BME280;24605;50.092;9.182;2023-02-10T05:49:21;99878.84;;;-1.63;100.00
38852;BME280;24605;50.092;9.182;2023-02-10T05:51:47;99883.91;;;-1.60;100.00
38852;BME280;24605;50.092;9.182;2023-02-10T05:54:15;99881.34;;;-1.60;100.00
38852;BME280;24605;50.092;9.182;2023-02-10T05:56:42;99882.22;;;-1.61;100.00
38852;BME280;24605;50.092;9.182;2023-02-10T05:59:10;99878.91;;;-1.65;100.00
38852;BME280;24605;50.092;9.182;2023-02-10T06:01:37;99882.22;;;-1.61;100.00
38852;BME280;24605;50.092;9.182;2023-02-10T06:04:04;99881.16;;;-1.54;100.00
38852;BME280;24605;50.092;9.182;2023-02-10T06:06:31;99883.91;;;-1.60;100.00
38852;BME280;24605;50.092;9.182;2023-02-10T06:08:57;99881.50;;;-1.66;100.00
38852;BME280;24605;50.092;9.182;2023-02-10T06:11:25;99881.09;;;-1.52;100.00
38852;BME280;24605;50.092;9.182;2023-02-10T06:13:51;99876.72;;;-1.79;100.00
38852;BME280;24605;50.092;9.182;2023-02-10T06:16:18;99867.31;;;-1.80;100.00
38852;BME280;24605;50.092;9.182;2023-02-10T06:18:45;99883.91;;;-1.60;100.00
38852;BME280;24605;50.092;9.182;2023-02-10T06:21:13;99880.59;;;-1.64;100.00
38852;BME280;24605;50.092;9.182;2023-02-10T06:23:39;99877.25;;;-1.37;100.00
38852;BME280;24605;50.092;9.182;2023-02-10T06:26:06;99889.75;;;-1.25;100.00
38852;BME280;24605;50.092;9.182;2023-02-10T06:28:34;99877.66;;;-1.21;100.00
38852;BME280;24605;50.092;9.182;2023-02-10T06:31:00;99883.47;;;-1.45;100.00
38852;BME280;24605;50.092;9.182;2023-02-10T06:33:28;99882.69;;;-1.18;100.00
38852;BME280;24605;50.092;9.182;2023-02-10T06:35:54;99874.06;;;-1.17;100.00
38852;BME280;24605;50.092;9.182;2023-02-10T06:38:21;99882.97;;;-0.99;100.00
38852;BME280;24605;50.092;9.182;2023-02-10T06:40:47;99886.06;;;-1.16;100.00
38852;BME280;24605;50.092;9.182;2023-02-10T06:43:14;99890.94;;;-1.07;100.00
38852;BME280;24605;50.092;9.182;2023-02-10T06:45:41;99889.44;;;-1.14;100.00
38852;BME280;24605;50.092;9.182;2023-02-10T06:48:08;99893.66;;;-1.12;100.00
38852;BME280;24605;50.092;9.182;2023-02-10T06:50:34;99898.72;;;-1.08;100.00
38852;BME280;24605;50.092;9.182;2023-02-10T06:53:01;99874.97;;;-1.18;100.00
38852;BME280;24605;50.092;9.182;2023-02-10T06:55:27;99886.03;;;-1.15;100.00
38852;BME280;24605;50.092;9.182;2023-02-10T06:57:57;99851.34;;;-1.31;100.00
38852;BME280;24605;50.092;9.182;2023-02-10T07:00:24;99894.09;;;-0.99;100.00
38852;BME280;24605;50.092;9.182;2023-02-10T07:02:52;99892.13;;;-0.89;100.00
38852;BME280;24605;50.092;9.182;2023-02-10T07:05:18;99878.19;;;-1.12;100.00
38852;BME280;24605;50.092;9.182;2023-02-10T07:07:45;99883.53;;;-0.89;100.00
38852;BME280;24605;50.092;9.182;2023-02-10T07:10:12;99888.75;;;-0.91;100.00
38852;BME280;24605;50.092;9.182;2023-02-10T07:12:38;99890.19;;;-1.11;100.00
38852;BME280;24605;50.092;9.182;2023-02-10T07:15:05;99884.75;;;-1.01;100.00
38852;BME280;24605;50.092;9.182;2023-02-10T07:17:32;99882.25;;;-1.04;100.00
38852;BME280;24605;50.092;9.182;2023-02-10T07:20:00;99889.63;;;-0.92;100.00
38852;BME280;24605;50.092;9.182;2023-02-10T07:22:26;99907.09;;;-0.75;100.00
38852;BME280;24605;50.092;9.182;2023-02-10T07:24:53;99913.66;;;-0.65;100.00
38852;BME280;24605;50.092;9.182;2023-02-10T07:27:19;99907.91;;;-0.73;100.00
38852;BME280;24605;50.092;9.182;2023-02-10T07:29:46;99911.00;;;-0.61;100.00
38852;BME280;24605;50.092;9.182;2023-02-10T07:32:12;99908.75;;;-0.72;100.00
38852;BME280;24605;50.092;9.182;2023-02-10T07:34:39;99905.66;;;-0.84;100.00
38852;BME280;24605;50.092;9.182;2023-02-10T07:37:07;99906.53;;;-0.56;99.60
38852;BME280;24605;50.092;9.182;2023-02-10T07:39:34;99908.13;;;-0.52;98.74
38852;BME280;24605;50.092;9.182;2023-02-10T07:42:01;99883.78;;;-0.70;98.01
38852;BME280;24605;50.092;9.182;2023-02-10T07:44:27;99922.72;;;-0.53;98.31
38852;BME280;24605;50.092;9.182;2023-02-10T07:46:54;99917.69;;;-0.56;99.36
38852;BME280;24605;50.092;9.182;2023-02-10T07:49:20;99920.50;;;-0.64;99.87
38852;BME280;24605;50.092;9.182;2023-02-10T07:51:47;99926.84;;;-0.47;99.90
38852;BME280;24605;50.092;9.182;2023-02-10T07:54:14;99938.44;;;-0.34;98.11
38852;BME280;24605;50.092;9.182;2023-02-10T07:56:41;99935.22;;;-0.40;97.35
38852;BME280;24605;50.092;9.182;2023-02-10T07:59:07;99935.78;;;-0.57;98.76
38852;BME280;24605;50.092;9.182;2023-02-10T08:01:34;99938.03;;;-0.48;100.00
38852;BME280;24605;50.092;9.182;2023-02-10T08:04:03;99937.78;;;-0.13;97.46
38852;BME280;24605;50.092;9.182;2023-02-10T08:06:29;99930.44;;;-0.26;96.63
38852;BME280;24605;50.092;9.182;2023-02-10T08:08:56;99944.56;;;-0.11;96.86
38852;BME280;24605;50.092;9.182;2023-02-10T08:11:23;99937.31;;;0.01;97.08
38852;BME280;24605;50.092;9.182;2023-02-10T08:13:50;99943.31;;;0.26;93.62
38852;BME280;24605;50.092;9.182;2023-02-10T08:16:16;99939.84;;;0.27;94.26
38852;BME280;24605;50.092;9.182;2023-02-10T08:18:43;99940.72;;;0.26;92.56
38852;BME280;24605;50.092;9.182;2023-02-10T08:21:09;99943.41;;;0.72;91.46
38852;BME280;24605;50.092;9.182;2023-02-10T08:23:36;99946.25;;;0.88;88.73
38852;BME280;24605;50.092;9.182;2023-02-10T08:26:03;99950.13;;;1.00;87.85
38852;BME280;24605;50.092;9.182;2023-02-10T08:28:33;99953.84;;;0.93;88.51
38852;BME280;24605;50.092;9.182;2023-02-10T08:30:59;99954.44;;;0.76;89.10
38852;BME280;24605;50.092;9.182;2023-02-10T08:33:26;99954.56;;;0.73;88.73
38852;BME280;24605;50.092;9.182;2023-02-10T08:35:53;99954.50;;;0.74;88.03
38852;BME280;24605;50.092;9.182;2023-02-10T08:38:19;99957.03;;;0.76;88.49
38852;BME280;24605;50.092;9.182;2023-02-10T08:40:53;99961.22;;;0.31;90.02
38852;BME280;24605;50.092;9.182;2023-02-10T08:43:20;99960.00;;;0.41;90.58
38852;BME280;24605;50.092;9.182;2023-02-10T08:45:48;99959.28;;;0.38;90.72
38852;BME280;24605;50.092;9.182;2023-02-10T08:48:15;99964.47;;;0.36;91.15
38852;BME280;24605;50.092;9.182;2023-02-10T08:50:42;99965.03;;;0.44;93.30
38852;BME280;24605;50.092;9.182;2023-02-10T08:53:08;99964.84;;;0.51;94.68
38852;BME280;24605;50.092;9.182;2023-02-10T08:55:35;99963.63;;;0.61;94.39
38852;BME280;24605;50.092;9.182;2023-02-10T08:58:02;99959.84;;;0.70;94.32
38852;BME280;24605;50.092;9.182;2023-02-10T09:00:28;99963.94;;;0.75;94.53
38852;BME280;24605;50.092;9.182;2023-02-10T09:02:57;99959.28;;;0.85;91.51
38852;BME280;24605;50.092;9.182;2023-02-10T09:05:23;99975.41;;;1.14;90.32
38852;BME280;24605;50.092;9.182;2023-02-10T09:07:50;99975.97;;;1.22;88.29
38852;BME280;24605;50.092;9.182;2023-02-10T09:10:17;99975.69;;;1.30;89.62
38852;BME280;24605;50.092;9.182;2023-02-10T09:12:44;99914.19;;;0.94;89.42
38852;BME280;24605;50.092;9.182;2023-02-10T09:15:10;99955.91;;;1.29;86.86
38852;BME280;24605;50.092;9.182;2023-02-10T09:17:37;99982.59;;;1.52;85.59
38852;BME280;24605;50.092;9.182;2023-02-10T09:20:06;99967.22;;;1.49;84.73
38852;BME280;24605;50.092;9.182;2023-02-10T09:22:33;99979.59;;;1.18;87.59
38852;BME280;24605;50.092;9.182;2023-02-10T09:24:59;99984.25;;;1.31;88.06
38852;BME280;24605;50.092;9.182;2023-02-10T09:27:25;99982.59;;;1.52;86.05
38852;BME280;24605;50.092;9.182;2023-02-10T09:29:52;99987.03;;;1.48;84.53
38852;BME280;24605;50.092;9.182;2023-02-10T09:32:18;99985.78;;;1.36;84.61
38852;BME280;24605;50.092;9.182;2023-02-10T09:34:45;99975.97;;;1.45;83.93
38852;BME280;24605;50.092;9.182;2023-02-10T09:37:13;99996.19;;;1.35;83.34
38852;BME280;24605;50.092;9.182;2023-02-10T09:39:39;99982.28;;;1.37;82.29
38852;BME280;24605;50.092;9.182;2023-02-10T09:42:09;99988.84;;;1.46;83.77
38852;BME280;24605;50.092;9.182;2023-02-10T09:44:43;99985.31;;;1.49;83.36
38852;BME280;24605;50.092;9.182;2023-02-10T09:47:31;100001.00;;;1.44;82.60
38852;BME280;24605;50.092;9.182;2023-02-10T09:50:22;99994.66;;;1.29;82.85
38852;BME280;24605;50.092;9.182;2023-02-10T09:53:01;99999.41;;;1.62;82.46
38852;BME280;24605;50.092;9.182;2023-02-10T09:55:33;99971.53;;;1.48;82.03
38852;BME280;24605;50.092;9.182;2023-02-10T09:58:03;99997.63;;;1.64;82.18
38852;BME280;24605;50.092;9.182;2023-02-10T10:00:34;100002.47;;;1.72;81.10
38852;BME280;24605;50.092;9.182;2023-02-10T10:03:05;99997.06;;;1.78;81.79
38852;BME280;24605;50.092;9.182;2023-02-10T10:05:45;100009.63;;;1.87;81.08
38852;BME280;24605;50.092;9.182;2023-02-10T10:08:20;99996.03;;;1.82;81.25
38852;BME280;24605;50.092;9.182;2023-02-10T10:10:49;100011.25;;;1.90;81.54
38852;BME280;24605;50.092;9.182;2023-02-10T10:13:20;100005.91;;;1.72;82.21
38852;BME280;24605;50.092;9.182;2023-02-10T10:15:56;100004.22;;;1.71;81.91
38852;BME280;24605;50.092;9.182;2023-02-10T10:18:34;100008.03;;;1.63;82.69
38852;BME280;24605;50.092;9.182;2023-02-10T10:21:10;100011.97;;;1.71;81.39
38852;BME280;24605;50.092;9.182;2023-02-10T10:23:54;100016.41;;;1.90;81.65
38852;BME280;24605;50.092;9.182;2023-02-10T10:26:38;100021.53;;;1.92;81.26
38852;BME280;24605;50.092;9.182;2023-02-10T10:29:19;100023.09;;;1.96;81.64
38852;BME280;24605;50.092;9.182;2023-02-10T10:31:49;100027.81;;;2.07;81.19
38852;BME280;24605;50.092;9.182;2023-02-10T10:34:19;100026.44;;;2.20;80.74
38852;BME280;24605;50.092;9.182;2023-02-10T10:36:49;100034.75;;;2.06;82.24
38852;BME280;24605;50.092;9.182;2023-02-10T10:39:28;100022.19;;;2.17;82.47
38852;BME280;24605;50.092;9.182;2023-02-10T10:41:57;100025.63;;;2.39;81.98
38852;BME280;24605;50.092;9.182;2023-02-10T10:44:25;100026.63;;;2.57;80.21
38852;BME280;24605;50.092;9.182;2023-02-10T10:47:03;100023.94;;;2.58;80.04
38852;BME280;24605;50.092;9.182;2023-02-10T10:49:33;100012.69;;;2.59;79.56
38852;BME280;24605;50.092;9.182;2023-02-10T10:52:00;100009.59;;;2.51;79.86
38852;BME280;24605;50.092;9.182;2023-02-10T10:54:28;100002.75;;;2.69;80.45
38852;BME280;24605;50.092;9.182;2023-02-10T10:57:00;100000.41;;;2.84;80.04
38852;BME280;24605;50.092;9.182;2023-02-10T10:59:31;99998.19;;;2.95;78.60
38852;BME280;24605;50.092;9.182;2023-02-10T11:02:11;99995.75;;;3.30;78.01
38852;BME280;24605;50.092;9.182;2023-02-10T11:04:37;99994.00;;;3.11;78.11
38852;BME280;24605;50.092;9.182;2023-02-10T11:07:09;99989.34;;;2.99;78.06
38852;BME280;24605;50.092;9.182;2023-02-10T11:09:40;99982.97;;;3.06;77.77
38852;BME280;24605;50.092;9.182;2023-02-10T11:12:16;99986.53;;;3.23;77.95
38852;BME280;24605;50.092;9.182;2023-02-10T11:14:47;99986.81;;;3.36;77.14
38852;BME280;24605;50.092;9.182;2023-02-10T11:17:21;99979.19;;;3.33;77.35
38852;BME280;24605;50.092;9.182;2023-02-10T11:19:55;99969.38;;;3.20;76.70
38852;BME280;24605;50.092;9.182;2023-02-10T11:22:22;99977.38;;;3.35;77.31
38852;BME280;24605;50.092;9.182;2023-02-10T11:24:52;99965.50;;;3.48;77.16
38852;BME280;24605;50.092;9.182;2023-02-10T11:27:19;99970.72;;;3.66;76.31
38852;BME280;24605;50.092;9.182;2023-02-10T11:29:48;99968.78;;;3.52;76.26
38852;BME280;24605;50.092;9.182;2023-02-10T11:32:21;99971.47;;;3.50;75.79
38852;BME280;24605;50.092;9.182;2023-02-10T11:34:50;99976.34;;;3.20;77.61
38852;BME280;24605;50.092;9.182;2023-02-10T11:37:22;99964.72;;;3.09;77.55
38852;BME280;24605;50.092;9.182;2023-02-10T11:39:52;99965.13;;;3.38;76.61
38852;BME280;24605;50.092;9.182;2023-02-10T11:42:22;99947.66;;;3.42;77.18
38852;BME280;24605;50.092;9.182;2023-02-10T11:44:54;99966.28;;;3.50;76.94
38852;BME280;24605;50.092;9.182;2023-02-10T11:47:21;99967.91;;;3.34;77.53
38852;BME280;24605;50.092;9.182;2023-02-10T11:49:48;99967.28;;;3.28;77.88
38852;BME280;24605;50.092;9.182;2023-02-10T11:52:17;99952.75;;;3.43;76.67
38852;BME280;24605;50.092;9.182;2023-02-10T11:54:46;99950.72;;;3.50;76.64
38852;BME280;24605;50.092;9.182;2023-02-10T11:57:25;99956.13;;;3.45;77.96
38852;BME280;24605;50.092;9.182;2023-02-10T12:00:19;99962.00;;;3.49;76.95
38852;BME280;24605;50.092;9.182;2023-02-10T12:03:28;99964.03;;;3.06;78.89
38852;BME280;24605;50.092;9.182;2023-02-10T12:06:05;99966.75;;;3.58;77.89
38852;BME280;24605;50.092;9.182;2023-02-10T12:08:40;99964.47;;;3.52;76.46
38852;BME280;24605;50.092;9.182;2023-02-10T12:11:12;99971.84;;;3.23;78.37
38852;BME280;24605;50.092;9.182;2023-02-10T12:13:48;99959.59;;;2.89;80.77
38852;BME280;24605;50.092;9.182;2023-02-10T12:16:21;99958.63;;;3.47;77.66
38852;BME280;24605;50.092;9.182;2023-02-10T12:18:58;99957.59;;;3.32;77.95
38852;BME280;24605;50.092;9.182;2023-02-10T12:21:40;99949.44;;;3.94;76.68
38852;BME280;24605;50.092;9.182;2023-02-10T12:24:13;99957.16;;;3.78;75.69
38852;BME280;24605;50.092;9.182;2023-02-10T12:26:45;99956.63;;;3.89;75.98
38852;BME280;24605;50.092;9.182;2023-02-10T12:29:24;99958.06;;;3.95;75.06
38852;BME280;24605;50.092;9.182;2023-02-10T12:32:00;99954.94;;;4.05;75.08
38852;BME280;24605;50.092;9.182;2023-02-10T12:37:35;99957.06;;;4.15;74.20
38852;BME280;24605;50.092;9.182;2023-02-10T12:40:24;99940.72;;;4.13;75.28
38852;BME280;24605;50.092;9.182;2023-02-10T12:43:01;99952.56;;;4.18;75.62
38852;BME280;24605;50.092;9.182;2023-02-10T12:45:41;99953.72;;;3.95;76.49
38852;BME280;24605;50.092;9.182;2023-02-10T12:48:20;99945.22;;;4.27;74.71
38852;BME280;24605;50.092;9.182;2023-02-10T12:51:17;99956.47;;;4.10;74.72
38852;BME280;24605;50.092;9.182;2023-02-10T12:53:54;99950.13;;;3.98;76.77
38852;BME280;24605;50.092;9.182;2023-02-10T12:56:26;99947.78;;;4.44;74.63
38852;BME280;24605;50.092;9.182;2023-02-10T12:58:54;99938.69;;;4.69;73.91
38852;BME280;24605;50.092;9.182;2023-02-10T13:01:26;99949.50;;;4.61;73.73
38852;BME280;24605;50.092;9.182;2023-02-10T13:04:02;99949.13;;;4.85;73.75
38852;BME280;24605;50.092;9.182;2023-02-10T13:06:34;99944.16;;;4.80;73.78
38852;BME280;24605;50.092;9.182;2023-02-10T13:09:05;99937.38;;;4.78;73.46
38852;BME280;24605;50.092;9.182;2023-02-10T13:11:41;99941.75;;;4.93;73.83
38852;BME280;24605;50.092;9.182;2023-02-10T13:14:14;99943.09;;;4.84;73.29
38852;BME280;24605;50.092;9.182;2023-02-10T13:16:50;99932.00;;;4.81;73.54